Time;durP1;ratioP1;P1;durP2;ratioP2;P2;SDS_P1;SDS_P2;PMS_P1;PMS_P2;Temp;Humidity;BMP_temperature;BMP_pressure;BME280_temperature;BME280_humidity;BME280_pressure;Samples;Min_cycle;Max_cycle;Signal;HPM_P1;HPM_P2
2021/10/09 00:02:17;;;;;;;36.03;31.20;;;12.10;99.90;;;;;;5061236;28;20207;-81
2021/10/09 00:04:46;;;;;;;35.27;31.40;;;12.00;99.90;;;;;;5058294;28;20189;-81
2021/10/09 00:07:14;;;;;;;37.53;31.60;;;12.10;99.90;;;;;;5040733;28;20523;-81
2021/10/09 00:09:41;;;;;;;34.83;31.13;;;12.00;99.90;;;;;;5057475;28;20220;-81
2021/10/09 00:12:07;;;;;;;34.60;30.83;;;12.00;99.90;;;;;;5038386;28;20187;-82
2021/10/09 00:14:32;;;;;;;37.63;33.03;;;11.90;99.90;;;;;;5056485;28;20181;-83
2021/10/09 00:16:58;;;;;;;35.67;31.77;;;12.00;99.90;;;;;;5038297;28;20650;-81
2021/10/09 00:19:25;;;;;;;36.90;32.90;;;12.00;99.90;;;;;;5038125;28;20711;-82
2021/10/09 00:21:50;;;;;;;37.77;31.87;;;12.00;99.90;;;;;;5038059;28;20283;-82
2021/10/09 00:24:19;;;;;;;35.83;31.87;;;12.00;99.90;;;;;;5055864;28;20212;-81
2021/10/09 00:26:46;;;;;;;38.43;33.80;;;12.00;99.90;;;;;;5055233;28;20181;-81
2021/10/09 00:29:11;;;;;;;37.23;33.37;;;11.80;99.90;;;;;;5055604;28;20266;-81
2021/10/09 00:31:38;;;;;;;37.40;33.30;;;11.90;99.90;;;;;;5055341;28;20192;-81
2021/10/09 00:34:04;;;;;;;36.33;32.20;;;11.80;99.90;;;;;;5055460;28;20173;-82
2021/10/09 00:36:29;;;;;;;37.20;33.10;;;11.80;99.90;;;;;;5055533;28;20173;-81
2021/10/09 00:38:56;;;;;;;38.63;33.97;;;12.00;99.90;;;;;;5055650;28;20252;-82
2021/10/09 00:41:22;;;;;;;35.93;32.10;;;11.80;99.90;;;;;;5037889;28;20188;-81
2021/10/09 00:43:48;;;;;;;37.83;32.90;;;11.90;99.90;;;;;;5055425;28;20576;-81
2021/10/09 00:46:13;;;;;;;38.57;34.40;;;11.80;99.90;;;;;;5055496;28;20208;-83
2021/10/09 00:48:39;;;;;;;36.70;32.53;;;11.80;99.90;;;;;;5055095;28;20287;-81
2021/10/09 00:51:06;;;;;;;37.80;33.70;;;11.70;99.90;;;;;;5055203;28;20191;-81
2021/10/09 00:53:33;;;;;;;40.00;32.93;;;11.70;99.90;;;;;;5055368;28;20177;-81
2021/10/09 00:56:02;;;;;;;39.10;33.70;;;11.60;99.90;;;;;;5055142;28;20649;-81
2021/10/09 00:58:28;;;;;;;38.30;34.20;;;11.60;99.90;;;;;;5055060;28;20255;-80
2021/10/09 01:00:55;;;;;;;37.97;33.50;;;11.50;99.90;;;;;;5037161;28;20524;-82
2021/10/09 01:03:21;;;;;;;38.03;34.13;;;11.50;99.90;;;;;;5054723;28;20193;-80
2021/10/09 01:05:47;;;;;;;35.97;32.07;;;11.50;99.90;;;;;;5037326;28;20271;-81
2021/10/09 01:08:14;;;;;;;39.80;34.00;;;11.50;99.90;;;;;;5053576;28;20560;-81
2021/10/09 01:10:40;;;;;;;38.27;34.07;;;11.50;99.90;;;;;;5056024;28;20645;-80
2021/10/09 01:13:05;;;;;;;36.43;32.33;;;11.50;99.90;;;;;;5057459;28;20169;-81
2021/10/09 01:15:34;;;;;;;37.03;33.17;;;11.40;99.90;;;;;;5056300;28;20180;-81
2021/10/09 01:18:15;;;;;;;37.93;33.90;;;11.40;99.90;;;;;;5036968;28;20192;-81
2021/10/09 01:20:46;;;;;;;39.43;34.23;;;11.40;99.90;;;;;;5054863;28;20200;-82
2021/10/09 01:23:12;;;;;;;37.33;33.17;;;11.50;99.90;;;;;;5054691;28;20169;-83
2021/10/09 01:25:38;;;;;;;39.00;34.80;;;11.40;99.90;;;;;;5054257;28;20199;-84
2021/10/09 01:28:04;;;;;;;38.57;34.47;;;11.20;99.90;;;;;;5054690;28;20169;-81
2021/10/09 01:30:29;;;;;;;38.30;34.30;;;11.30;99.90;;;;;;5054398;28;20715;-82
2021/10/09 01:32:56;;;;;;;40.03;34.43;;;11.30;99.90;;;;;;5054500;28;20181;-81
2021/10/09 01:35:22;;;;;;;37.57;33.33;;;11.30;99.90;;;;;;5054763;28;20181;-82
2021/10/09 01:37:47;;;;;;;41.00;36.53;;;11.40;99.90;;;;;;5054660;28;20185;-81
2021/10/09 01:40:13;;;;;;;38.73;34.47;;;11.40;99.90;;;;;;5054778;28;20645;-81
2021/10/09 01:42:39;;;;;;;40.97;36.43;;;11.30;99.90;;;;;;5037406;28;20524;-80
2021/10/09 01:45:08;;;;;;;39.20;34.97;;;11.30;99.90;;;;;;5056118;28;20176;-80
2021/10/09 01:47:39;;;;;;;37.70;33.17;;;11.30;99.90;;;;;;5039446;28;20181;-79
2021/10/09 01:50:06;;;;;;;38.33;34.23;;;11.20;99.90;;;;;;5040233;28;20208;-80
2021/10/09 01:52:32;;;;;;;38.93;34.63;;;11.20;99.90;;;;;;5055762;28;20174;-81
2021/10/09 01:54:58;;;;;;;41.43;36.93;;;11.20;99.90;;;;;;5054647;28;20173;-81
2021/10/09 01:57:24;;;;;;;38.40;34.23;;;11.30;99.90;;;;;;5054041;28;20242;-80
2021/10/09 01:59:49;;;;;;;41.70;36.53;;;11.20;99.90;;;;;;5054148;28;20659;-81
2021/10/09 02:02:15;;;;;;;39.37;34.90;;;11.20;99.90;;;;;;5036429;28;20188;-81
2021/10/09 02:04:41;;;;;;;39.40;34.23;;;11.30;99.90;;;;;;5053847;28;20176;-81
2021/10/09 02:07:12;;;;;;;40.17;35.80;;;11.30;99.90;;;;;;5053748;28;20219;-81
2021/10/09 02:09:40;;;;;;;39.97;35.60;;;11.30;99.90;;;;;;5036075;28;20228;-80
2021/10/09 02:12:06;;;;;;;39.80;35.53;;;11.20;99.90;;;;;;5036041;28;20176;-81
2021/10/09 02:25:29;;;;;;;40.10;35.47;;;11.30;99.90;;;;;;5053770;28;20776;-82
2021/10/09 02:27:56;;;;;;;38.87;34.63;;;11.10;99.90;;;;;;5053577;28;20169;-81
2021/10/09 02:30:24;;;;;;;41.57;34.03;;;11.10;99.90;;;;;;5053169;28;20251;-82
2021/10/09 02:32:49;;;;;;;39.50;35.07;;;11.00;99.90;;;;;;5053946;28;20541;-81
2021/10/09 02:35:15;;;;;;;41.23;34.27;;;10.90;99.90;;;;;;5063431;28;20633;-79
2021/10/09 02:37:41;;;;;;;39.43;35.33;;;10.90;99.90;;;;;;5046086;28;20621;-80
2021/10/09 02:40:07;;;;;;;42.77;35.60;;;10.80;99.90;;;;;;5055527;28;20625;-81
2021/10/09 02:42:33;;;;;;;40.30;35.90;;;10.90;99.90;;;;;;5037033;28;20192;-80
2021/10/09 02:44:58;;;;;;;40.97;35.73;;;10.90;99.90;;;;;;5055454;28;20169;-80
2021/10/09 02:47:25;;;;;;;40.37;36.07;;;11.00;99.90;;;;;;5058229;28;20173;-79
2021/10/09 02:49:50;;;;;;;41.30;36.93;;;11.00;99.90;;;;;;5057478;28;20216;-80
2021/10/09 02:52:16;;;;;;;41.17;36.70;;;11.00;99.90;;;;;;5055271;28;20188;-80
2021/10/09 02:54:42;;;;;;;42.03;37.47;;;11.00;99.90;;;;;;5059690;28;20230;-80
2021/10/09 02:57:09;;;;;;;42.30;37.80;;;11.10;99.90;;;;;;5074223;28;20192;-79
2021/10/09 02:59:34;;;;;;;41.70;37.13;;;11.20;99.90;;;;;;5065066;28;20203;-80
2021/10/09 03:02:00;;;;;;;43.53;37.27;;;11.10;99.90;;;;;;5056290;28;20173;-80
2021/10/09 03:04:25;;;;;;;41.43;37.03;;;11.00;99.90;;;;;;5053608;28;20629;-81
2021/10/09 03:06:51;;;;;;;42.33;37.80;;;11.00;99.90;;;;;;5035664;28;20348;-81
2021/10/09 03:09:18;;;;;;;42.30;37.50;;;11.00;99.90;;;;;;5053212;28;20574;-80
2021/10/09 03:11:43;;;;;;;42.47;36.47;;;11.00;99.90;;;;;;5053200;28;20173;-80
2021/10/09 03:14:09;;;;;;;41.73;37.10;;;11.00;99.90;;;;;;5034717;28;20659;-82
2021/10/09 03:16:34;;;;;;;41.20;36.70;;;11.00;99.90;;;;;;5034959;28;20196;-80
2021/10/09 03:19:00;;;;;;;41.73;36.70;;;11.10;99.90;;;;;;5053037;28;20188;-80
2021/10/09 03:21:26;;;;;;;40.70;36.17;;;11.20;99.90;;;;;;5034625;28;20246;-81
2021/10/09 03:23:51;;;;;;;41.57;36.57;;;11.00;99.90;;;;;;5053010;28;20192;-81
2021/10/09 03:26:17;;;;;;;42.17;37.47;;;10.90;99.90;;;;;;5052724;28;20180;-81
2021/10/09 03:28:43;;;;;;;41.90;37.37;;;10.90;99.90;;;;;;5052544;28;20232;-80
2021/10/09 03:31:08;;;;;;;41.93;37.30;;;10.80;99.90;;;;;;5054120;28;20550;-80
2021/10/09 03:33:34;;;;;;;42.73;36.03;;;10.80;99.90;;;;;;5056798;28;20177;-81
2021/10/09 03:36:00;;;;;;;42.13;37.37;;;11.00;99.90;;;;;;5038858;28;20195;-81
2021/10/09 03:38:26;;;;;;;42.50;37.90;;;10.80;99.90;;;;;;5056741;28;20259;-80
2021/10/09 03:41:12;;;;;;;43.50;37.93;;;10.80;99.90;;;;;;5056979;28;20181;-80
2021/10/09 03:43:38;;;;;;;42.47;37.73;;;10.80;99.90;;;;;;5039031;28;20180;-82
2021/10/09 03:46:21;;;;;;;44.33;38.97;;;10.90;99.90;;;;;;5056801;28;20258;-80
2021/10/09 03:48:58;;;;;;;41.20;36.93;;;10.80;99.90;;;;;;5056618;28;20262;-81
2021/10/09 03:54:08;;;;;;;40.67;36.23;;;10.90;99.90;;;;;;5056973;28;20600;-79
2021/10/09 03:56:34;;;;;;;39.10;34.97;;;10.90;99.90;;;;;;5056142;28;20189;-80
2021/10/09 03:59:03;;;;;;;41.13;36.53;;;11.00;99.90;;;;;;5056510;28;20580;-81
2021/10/09 04:01:28;;;;;;;43.30;35.87;;;10.90;99.90;;;;;;5055979;28;20660;-81
2021/10/09 04:03:54;;;;;;;45.50;37.27;;;10.80;99.90;;;;;;5056156;28;20224;-80
2021/10/09 04:06:20;;;;;;;41.57;35.57;;;10.90;99.90;;;;;;5056037;28;20177;-79
2021/10/09 04:08:46;;;;;;;43.33;38.53;;;10.80;99.90;;;;;;5056066;28;20212;-80
2021/10/09 04:11:11;;;;;;;41.70;36.43;;;10.70;99.90;;;;;;5056453;28;20180;-79
2021/10/09 04:13:37;;;;;;;46.70;37.60;;;10.70;99.90;;;;;;5056708;28;20546;-80
2021/10/09 04:16:03;;;;;;;45.43;37.93;;;10.60;99.90;;;;;;5057134;28;20177;-81
2021/10/09 04:18:30;;;;;;;44.33;37.37;;;10.60;99.90;;;;;;5056269;28;20169;-81
2021/10/09 04:20:56;;;;;;;42.53;36.77;;;10.60;99.90;;;;;;5056790;28;20282;-79
2021/10/09 04:23:22;;;;;;;44.10;37.77;;;10.60;99.90;;;;;;5042045;28;20268;-81
2021/10/09 04:25:48;;;;;;;42.90;38.20;;;10.50;99.90;;;;;;5056574;28;20173;-79
2021/10/09 04:28:14;;;;;;;43.37;37.30;;;10.50;99.90;;;;;;5055677;28;20181;-83
2021/10/09 04:30:40;;;;;;;43.03;37.40;;;10.50;99.90;;;;;;5056079;28;20173;-80
2021/10/09 04:33:05;;;;;;;43.23;37.60;;;10.40;99.90;;;;;;5055608;28;20652;-80
2021/10/09 04:35:31;;;;;;;40.87;36.10;;;10.30;99.90;;;;;;5055696;28;20196;-80
2021/10/09 04:37:57;;;;;;;49.20;40.13;;;10.20;99.90;;;;;;5055526;28;20172;-81
2021/10/09 04:40:23;;;;;;;51.00;38.30;;;10.10;99.90;;;;;;5055548;28;20192;-81
2021/10/09 04:42:48;;;;;;;51.83;40.23;;;10.00;99.90;;;;;;5055592;28;20199;-81
2021/10/09 04:45:14;;;;;;;53.60;41.77;;;9.90;99.90;;;;;;5055701;28;20252;-80
2021/10/09 04:47:40;;;;;;;79.40;44.80;;;9.80;99.90;;;;;;5062012;28;20220;-80
2021/10/09 04:50:06;;;;;;;79.57;45.47;;;9.90;99.90;;;;;;5060697;28;20216;-79
2021/10/09 04:52:32;;;;;;;108.63;46.07;;;9.90;99.90;;;;;;5059297;28;20280;-82
2021/10/09 04:55:01;;;;;;;112.23;44.80;;;9.80;99.90;;;;;;5039336;28;20240;-83
2021/10/09 04:57:40;;;;;;;140.97;47.23;;;9.80;99.90;;;;;;5055683;28;20525;-83
2021/10/09 05:00:07;;;;;;;78.57;46.40;;;9.80;99.90;;;;;;5055566;28;20265;-83
2021/10/09 05:02:33;;;;;;;167.83;47.97;;;9.70;99.90;;;;;;5055597;28;20272;-83
2021/10/09 05:04:58;;;;;;;132.20;50.13;;;9.70;99.90;;;;;;5055594;28;20224;-83
2021/10/09 05:07:24;;;;;;;87.40;49.13;;;9.70;99.90;;;;;;5056071;28;20165;-81
2021/10/09 05:09:50;;;;;;;93.07;49.17;;;9.70;99.90;;;;;;5058409;28;20216;-81
2021/10/09 05:12:17;;;;;;;85.33;48.93;;;9.80;99.90;;;;;;5039668;28;20208;-81
2021/10/09 05:14:42;;;;;;;135.70;49.00;;;9.80;99.90;;;;;;5058421;28;20278;-80
2021/10/09 05:17:09;;;;;;;90.37;48.70;;;9.70;99.90;;;;;;5055812;28;20236;-81
2021/10/09 05:19:35;;;;;;;146.97;50.03;;;9.50;99.90;;;;;;5054874;28;20177;-82
2021/10/09 05:22:02;;;;;;;210.83;52.80;;;9.50;99.90;;;;;;5038906;28;20235;-83
2021/10/09 05:24:29;;;;;;;241.67;54.50;;;9.50;99.90;;;;;;5055472;28;20173;-83
2021/10/09 05:26:55;;;;;;;121.47;49.30;;;9.40;99.90;;;;;;5054633;28;20172;-86
2021/10/09 05:29:21;;;;;;;186.83;53.87;;;9.40;99.90;;;;;;5037742;28;20213;-82
2021/10/09 05:31:49;;;;;;;183.93;55.93;;;9.40;99.90;;;;;;5037837;28;20541;-82
2021/10/09 05:34:14;;;;;;;311.20;58.50;;;9.40;99.90;;;;;;5036670;28;20236;-84
2021/10/09 05:36:40;;;;;;;170.90;51.43;;;9.30;99.90;;;;;;5036665;28;20177;-83
2021/10/09 05:39:06;;;;;;;180.60;54.43;;;9.30;99.90;;;;;;5054367;28;20540;-83
2021/10/09 05:41:31;;;;;;;140.40;53.37;;;9.30;99.90;;;;;;5054528;28;20172;-83
2021/10/09 05:43:57;;;;;;;155.03;55.67;;;9.30;99.90;;;;;;5054090;28;20340;-82
2021/10/09 05:46:23;;;;;;;158.40;58.37;;;9.40;99.90;;;;;;5054512;28;20189;-82
2021/10/09 05:48:49;;;;;;;139.63;56.27;;;9.50;99.90;;;;;;5037814;28;20201;-83
2021/10/09 05:51:19;;;;;;;98.10;55.03;;;9.50;99.90;;;;;;5047634;28;20543;-82
2021/10/09 05:54:53;;;;;;;96.70;55.43;;;9.50;99.90;;;;;;5041164;28;20181;-82
2021/10/09 07:01:31;;;;;;;52.97;39.37;;;10.20;99.90;;;;;;5053606;28;20651;-82
2021/10/09 07:03:57;;;;;;;57.20;41.07;;;10.10;99.90;;;;;;5035112;28;20185;-82
2021/10/09 07:06:23;;;;;;;53.73;40.87;;;10.10;99.90;;;;;;5035565;28;20552;-83
2021/10/09 07:08:48;;;;;;;55.23;40.97;;;10.10;99.90;;;;;;5054199;28;20240;-82
2021/10/09 07:11:15;;;;;;;50.57;39.87;;;10.10;99.90;;;;;;5053262;28;20201;-81
2021/10/09 07:13:42;;;;;;;47.30;38.20;;;10.20;99.90;;;;;;5052663;28;20169;-83
2021/10/09 07:16:08;;;;;;;47.40;37.20;;;10.30;99.90;;;;;;5053130;28;20530;-81
2021/10/09 07:18:34;;;;;;;49.30;38.40;;;10.50;99.90;;;;;;5053067;28;20192;-82
2021/10/09 07:21:00;;;;;;;49.20;37.40;;;10.30;99.90;;;;;;5034751;28;20665;-83
2021/10/09 07:23:27;;;;;;;43.80;36.43;;;10.30;99.90;;;;;;5052792;28;20255;-84
2021/10/09 07:25:52;;;;;;;43.57;35.80;;;10.40;99.90;;;;;;5056488;28;20184;-82
2021/10/09 07:28:18;;;;;;;45.00;37.03;;;10.40;99.90;;;;;;5054230;28;20169;-80
2021/10/09 07:30:44;;;;;;;44.87;37.23;;;10.50;99.90;;;;;;5052810;28;20793;-82
2021/10/09 07:33:15;;;;;;;42.93;34.60;;;10.40;99.90;;;;;;5035240;28;20794;-86
2021/10/09 07:35:40;;;;;;;43.07;34.83;;;10.50;99.90;;;;;;5053281;28;20181;-87
2021/10/09 07:38:08;;;;;;;41.27;34.00;;;10.50;99.90;;;;;;5062026;28;20184;-78
2021/10/09 07:40:34;;;;;;;42.30;34.37;;;10.60;99.90;;;;;;5058164;28;20188;-84
2021/10/09 07:43:00;;;;;;;37.80;33.13;;;10.60;99.90;;;;;;5039180;28;20219;-84
2021/10/09 07:45:26;;;;;;;39.03;33.30;;;10.70;99.90;;;;;;5065502;28;20169;-85
2021/10/09 07:47:52;;;;;;;34.90;30.80;;;10.70;99.90;;;;;;5046807;28;20200;-80
2021/10/09 07:50:17;;;;;;;37.67;31.43;;;10.70;99.90;;;;;;5063219;28;20277;-81
2021/10/09 07:52:44;;;;;;;40.60;33.53;;;10.70;99.90;;;;;;5046543;28;20228;-85
2021/10/09 07:55:11;;;;;;;39.13;31.73;;;10.80;99.90;;;;;;5062914;28;20638;-87
2021/10/09 07:57:36;;;;;;;39.03;31.80;;;10.80;99.90;;;;;;5038170;28;20529;-83
2021/10/09 08:00:04;;;;;;;37.27;31.57;;;10.80;99.90;;;;;;5062371;28;20195;-84
2021/10/09 08:02:32;;;;;;;38.13;32.20;;;10.80;99.90;;;;;;5058303;28;20173;-84
2021/10/09 08:04:58;;;;;;;38.07;31.40;;;10.90;99.90;;;;;;5051943;28;20176;-81
2021/10/09 08:07:29;;;;;;;39.73;32.53;;;11.00;99.90;;;;;;5053123;28;20169;-80
2021/10/09 08:09:55;;;;;;;34.17;30.43;;;11.20;99.90;;;;;;5055541;28;20215;-83
2021/10/09 08:12:21;;;;;;;34.23;30.07;;;11.50;99.90;;;;;;5053523;28;20181;-80
2021/10/09 08:14:47;;;;;;;34.73;30.20;;;11.40;99.90;;;;;;5052907;28;20195;-81
2021/10/09 08:17:12;;;;;;;35.67;30.20;;;11.40;99.90;;;;;;5053980;28;20177;-81
2021/10/09 08:19:39;;;;;;;33.50;28.77;;;11.60;99.90;;;;;;5056152;28;20169;-81
2021/10/09 08:22:10;;;;;;;32.13;28.07;;;11.70;99.90;;;;;;5038838;28;20591;-80
2021/10/09 08:27:12;;;;;;;32.30;28.77;;;11.90;99.90;;;;;;5057170;28;20672;-81
2021/10/09 08:40:35;;;;;;;34.20;27.47;;;12.20;99.90;;;;;;5063121;28;20196;-81
2021/10/09 08:43:04;;;;;;;34.97;27.93;;;12.40;99.90;;;;;;5056940;28;20280;-82
2021/10/09 08:45:41;;;;;;;34.83;28.50;;;12.40;99.90;;;;;;5057542;28;20166;-81
2021/10/09 08:48:10;;;;;;;31.73;27.57;;;12.50;99.90;;;;;;5055885;28;20200;-82
2021/10/09 08:50:35;;;;;;;30.30;25.83;;;12.60;99.90;;;;;;5055396;28;20219;-81
2021/10/09 08:53:08;;;;;;;29.77;26.50;;;12.70;99.90;;;;;;5055431;28;20260;-87
2021/10/09 08:55:37;;;;;;;30.10;26.80;;;12.80;99.90;;;;;;5054998;28;20181;-82
2021/10/09 08:58:12;;;;;;;29.63;25.97;;;12.90;99.90;;;;;;5054733;28;20653;-79
2021/10/09 09:01:02;;;;;;;33.40;27.83;;;12.90;99.90;;;;;;5040605;28;20200;-82
2021/10/09 09:40:03;;;;;;;30.90;25.77;;;14.20;95.80;;;;;;5053916;28;20197;-82
2021/10/09 09:42:29;;;;;;;29.27;24.83;;;14.10;94.80;;;;;;5035790;28;20629;-82
2021/10/09 09:44:57;;;;;;;31.60;24.33;;;14.20;94.40;;;;;;5036331;28;20181;-83
2021/10/09 09:47:37;;;;;;;29.47;24.07;;;14.30;93.80;;;;;;5037273;28;20188;-81
2021/10/09 09:50:05;;;;;;;27.40;22.87;;;14.40;92.80;;;;;;5054583;28;20294;-80
2021/10/09 09:52:38;;;;;;;28.43;24.17;;;14.50;91.20;;;;;;5054030;28;20179;-82
2021/10/09 09:55:07;;;;;;;25.73;22.93;;;14.50;91.40;;;;;;5036523;28;20193;-81
2021/10/09 09:57:35;;;;;;;26.63;21.97;;;14.60;91.40;;;;;;5036302;28;20702;-81
2021/10/09 10:00:11;;;;;;;27.10;22.73;;;14.60;90.60;;;;;;5053661;28;20281;-82
2021/10/09 10:02:44;;;;;;;25.23;21.80;;;14.60;90.50;;;;;;5037652;28;20197;-81
2021/10/09 10:05:12;;;;;;;29.00;24.10;;;14.60;90.90;;;;;;5053939;28;20250;-82
2021/10/09 10:07:39;;;;;;;26.33;23.37;;;14.70;90.00;;;;;;5054025;28;20176;-81
2021/10/09 10:10:06;;;;;;;28.43;22.37;;;14.90;90.10;;;;;;5054857;28;20244;-82
2021/10/09 10:12:32;;;;;;;24.73;21.37;;;15.00;90.20;;;;;;5055990;28;20234;-82
2021/10/09 10:14:59;;;;;;;25.77;22.20;;;15.10;90.10;;;;;;5056945;28;20233;-81
2021/10/09 10:17:42;;;;;;;29.17;23.37;;;15.10;88.90;;;;;;5052298;28;20190;-81
2021/10/09 10:20:12;;;;;;;26.67;20.83;;;15.20;90.30;;;;;;5069903;28;20210;-82
2021/10/09 10:22:39;;;;;;;24.37;21.43;;;15.20;86.90;;;;;;5047059;28;20189;-83
2021/10/09 10:25:24;;;;;;;27.10;21.50;;;15.50;84.60;;;;;;5070221;28;20172;-82
2021/10/09 10:28:01;;;;;;;25.17;20.63;;;15.50;80.30;;;;;;5058335;28;20220;-85
2021/10/09 10:30:46;;;;;;;25.80;20.60;;;15.50;78.90;;;;;;5052751;28;20227;-83
2021/10/09 10:33:12;;;;;;;24.97;21.93;;;15.60;79.40;;;;;;5034543;28;20532;-82
2021/10/09 10:35:37;;;;;;;24.57;20.83;;;15.70;77.70;;;;;;5053542;28;20169;-82
2021/10/09 10:38:22;;;;;;;24.53;20.50;;;15.80;74.80;;;;;;5053899;28;20177;-81
2021/10/09 10:41:05;;;;;;;24.27;21.03;;;15.80;73.70;;;;;;5036122;28;20186;-80
2021/10/09 10:46:18;;;;;;;25.00;20.70;;;15.50;77.00;;;;;;5053648;28;20227;-80
2021/10/09 10:49:04;;;;;;;24.13;20.70;;;15.60;77.10;;;;;;5066926;28;20197;-82
2021/10/09 10:56:57;;;;;;;22.80;19.43;;;16.10;73.30;;;;;;5055554;28;20526;-80
2021/10/09 10:59:32;;;;;;;21.77;18.43;;;16.20;71.20;;;;;;5032632;28;20266;-80
2021/10/09 11:02:22;;;;;;;21.90;16.20;;;16.30;67.90;;;;;;5053090;28;20525;-81
2021/10/09 11:04:49;;;;;;;20.20;17.00;;;16.20;61.30;;;;;;5037445;28;20185;-83
2021/10/09 11:07:16;;;;;;;20.67;17.27;;;16.30;62.00;;;;;;5054048;28;20705;-79
2021/10/09 11:09:48;;;;;;;19.60;16.17;;;16.30;58.40;;;;;;5055513;28;20213;-82
2021/10/09 11:12:30;;;;;;;21.20;16.20;;;16.40;56.40;;;;;;5034405;28;20255;-81
2021/10/09 11:15:05;;;;;;;20.00;15.83;;;16.40;54.30;;;;;;5055153;28;20177;-81
2021/10/09 11:17:38;;;;;;;20.47;15.83;;;16.40;54.10;;;;;;5055926;28;20185;-81
2021/10/09 11:20:10;;;;;;;21.93;16.33;;;16.50;54.80;;;;;;5035837;28;20196;-81
2021/10/09 11:22:49;;;;;;;20.27;16.20;;;16.50;52.20;;;;;;5054337;28;20191;-79
2021/10/09 11:25:34;;;;;;;19.67;16.60;;;16.60;52.20;;;;;;5062034;28;20211;-78
2021/10/09 11:28:05;;;;;;;21.53;16.47;;;16.50;53.50;;;;;;5034243;28;20186;-81
2021/10/09 11:30:32;;;;;;;21.73;17.10;;;16.60;50.90;;;;;;5050553;28;20251;-82
2021/10/09 11:33:04;;;;;;;19.83;14.90;;;16.70;51.50;;;;;;5052963;28;20260;-82
2021/10/09 11:35:35;;;;;;;19.47;14.70;;;16.80;49.40;;;;;;5053283;28;20188;-82
2021/10/09 11:38:16;;;;;;;19.23;14.33;;;16.90;49.20;;;;;;5053273;28;20176;-84
2021/10/09 11:40:47;;;;;;;16.60;13.93;;;17.00;45.00;;;;;;5053589;28;20624;-80
2021/10/09 11:54:24;;;;;;;20.30;15.70;;;17.10;35.90;;;;;;5058424;28;20224;-88
2021/10/09 11:56:50;;;;;;;16.37;13.43;;;17.20;40.80;;;;;;5058207;28;20191;-80
2021/10/09 11:59:40;;;;;;;18.07;14.63;;;17.20;40.80;;;;;;5056649;28;20279;-80
2021/10/09 12:02:06;;;;;;;17.67;12.90;;;17.30;32.10;;;;;;5039596;28;20625;-79
2021/10/09 12:04:33;;;;;;;16.60;12.33;;;17.30;34.40;;;;;;5064852;28;20175;-80
2021/10/09 12:07:09;;;;;;;16.27;13.50;;;17.30;31.70;;;;;;5067423;28;20188;-78
2021/10/09 12:09:45;;;;;;;16.93;13.13;;;17.50;28.80;;;;;;5070822;28;20213;-79
2021/10/09 12:12:21;;;;;;;20.90;15.70;;;17.60;31.00;;;;;;5050114;28;20206;-80
2021/10/09 12:14:53;;;;;;;17.63;13.63;;;17.60;24.00;;;;;;5039859;28;20181;-80
2021/10/09 12:17:56;;;;;;;19.40;14.90;;;17.70;28.50;;;;;;5056213;28;20173;-80
2021/10/09 12:20:26;;;;;;;20.13;13.60;;;17.80;30.70;;;;;;5055908;28;20264;-80
2021/10/09 12:22:58;;;;;;;18.87;13.70;;;17.80;28.20;;;;;;5055816;28;20162;-80
2021/10/09 12:25:28;;;;;;;19.67;13.67;;;17.70;29.00;;;;;;5055644;28;20260;-79
2021/10/09 12:27:59;;;;;;;15.57;13.00;;;17.80;27.50;;;;;;5055899;28;20181;-81
2021/10/09 12:30:46;;;;;;;11.67;8.70;;;17.90;23.50;;;;;;5056320;28;20215;-80
2021/10/09 12:33:38;;;;;;;15.13;12.20;;;17.90;6.90;;;;;;5064925;28;20181;-79
2021/10/09 12:36:32;;;;;;;19.87;13.80;;;18.00;13.60;;;;;;5065832;28;20188;-78
2021/10/09 12:39:18;;;;;;;17.40;13.13;;;18.00;25.10;;;;;;5058256;28;20209;-80
2021/10/09 12:41:44;;;;;;;14.70;10.50;;;17.90;18.60;;;;;;5038824;28;20190;-79
2021/10/09 12:44:10;;;;;;;14.40;11.10;;;17.90;9.90;;;;;;5056291;28;20636;-81
2021/10/09 12:46:39;;;;;;;12.50;10.70;;;17.90;4.50;;;;;;5057766;28;20176;-79
2021/10/09 12:49:07;;;;;;;13.50;10.53;;;18.00;3.50;;;;;;5057016;28;20651;-80
2021/10/09 12:51:33;;;;;;;16.60;11.00;;;18.00;4.50;;;;;;5039165;28;20188;-78
2021/10/09 12:54:04;;;;;;;14.83;10.83;;;18.10;8.60;;;;;;5056694;28;20536;-80
2021/10/09 12:56:30;;;;;;;13.63;10.33;;;18.50;4.10;;;;;;5056560;28;20621;-78
2021/10/09 12:58:55;;;;;;;11.60;10.17;;;18.60;1.00;;;;;;5055333;28;20263;-82
2021/10/09 13:01:21;;;;;;;14.40;10.47;;;18.50;1.00;;;;;;5054217;28;20603;-81
2021/10/09 13:03:46;;;;;;;12.87;9.93;;;18.60;1.00;;;;;;5053949;28;20592;-82
2021/10/09 13:06:12;;;;;;;12.33;9.50;;;18.60;1.00;;;;;;5037218;28;20193;-82
2021/10/09 13:08:38;;;;;;;10.77;9.50;;;18.40;1.00;;;;;;5054492;28;20181;-78
2021/10/09 13:11:04;;;;;;;12.40;8.50;;;18.50;1.00;;;;;;5055141;28;20194;-80
2021/10/09 13:13:30;;;;;;;14.53;10.83;;;18.50;1.00;;;;;;5056123;28;20188;-78
2021/10/09 13:15:55;;;;;;;14.17;10.50;;;18.50;1.00;;;;;;5054664;28;20220;-82
2021/10/09 13:18:21;;;;;;;10.90;8.97;;;18.50;1.00;;;;;;5036607;28;20192;-80
2021/10/09 13:20:47;;;;;;;11.07;8.87;;;18.60;1.00;;;;;;5054864;28;20201;-81
2021/10/09 13:23:14;;;;;;;9.50;7.17;;;18.70;1.00;;;;;;5037995;28;20653;-79
2021/10/09 13:25:40;;;;;;;12.87;8.40;;;18.70;1.00;;;;;;5055466;28;20185;-80
2021/10/09 13:28:06;;;;;;;10.10;8.10;;;18.70;1.00;;;;;;5054725;28;20605;-81
2021/10/09 13:30:33;;;;;;;11.07;8.13;;;18.70;1.00;;;;;;5055421;28;20279;-81
2021/10/09 13:32:58;;;;;;;12.63;8.30;;;18.70;1.00;;;;;;5055732;28;20169;-79
2021/10/09 13:35:24;;;;;;;11.30;8.90;;;18.70;1.00;;;;;;5057648;28;20235;-79
2021/10/09 13:37:57;;;;;;;9.70;7.47;;;18.90;1.00;;;;;;5055366;28;20617;-80
2021/10/09 13:40:27;;;;;;;12.00;10.10;;;19.00;1.00;;;;;;5043331;28;20182;-79
2021/10/09 13:42:53;;;;;;;12.90;7.97;;;19.00;1.00;;;;;;5038910;28;20188;-80
2021/10/09 13:45:19;;;;;;;11.17;7.20;;;19.20;1.00;;;;;;5054598;28;20641;-80
2021/10/09 13:47:45;;;;;;;12.43;8.83;;;19.20;1.00;;;;;;5054388;28;20242;-78
2021/10/09 13:50:12;;;;;;;10.27;7.73;;;19.20;1.00;;;;;;5053937;28;20680;-81
2021/10/09 13:52:39;;;;;;;13.27;8.43;;;19.20;1.00;;;;;;5054668;28;20529;-82
2021/10/09 13:55:05;;;;;;;11.30;7.83;;;19.20;1.00;;;;;;5054606;28;20323;-81
2021/10/09 13:57:31;;;;;;;9.53;7.47;;;19.30;1.00;;;;;;5053838;28;20204;-80
2021/10/09 13:59:57;;;;;;;11.03;8.13;;;19.10;1.00;;;;;;5053622;28;20193;-81
2021/10/09 14:02:24;;;;;;;12.43;8.13;;;19.00;1.00;;;;;;5054107;28;20184;-80
2021/10/09 14:04:50;;;;;;;10.27;7.83;;;18.90;1.00;;;;;;5053396;28;20177;-80
2021/10/09 14:07:16;;;;;;;10.57;7.60;;;19.10;1.00;;;;;;5054338;28;20266;-79
2021/10/09 14:09:42;;;;;;;12.97;7.97;;;19.20;1.00;;;;;;5035624;28;20216;-79
2021/10/09 14:12:08;;;;;;;10.07;6.70;;;19.30;1.00;;;;;;5035924;28;20185;-80
2021/10/09 14:14:33;;;;;;;12.13;8.40;;;19.20;1.00;;;;;;5053537;28;20184;-78
2021/10/09 14:17:00;;;;;;;9.20;6.90;;;19.20;1.00;;;;;;5055174;28;20232;-78
2021/10/09 14:19:26;;;;;;;8.77;6.20;;;19.20;1.00;;;;;;5054704;28;20181;-79
2021/10/09 14:21:51;;;;;;;9.33;6.23;;;19.10;1.00;;;;;;5056461;28;20546;-80
2021/10/09 14:24:19;;;;;;;9.27;6.47;;;19.00;1.00;;;;;;5057763;28;20171;-81
2021/10/09 14:26:45;;;;;;;9.70;6.23;;;19.00;1.00;;;;;;5040176;28;20181;-80
2021/10/09 14:29:11;;;;;;;10.90;6.20;;;19.10;1.00;;;;;;5054725;28;20235;-80
2021/10/09 14:31:37;;;;;;;7.77;5.67;;;19.20;1.00;;;;;;5055434;28;20185;-79
2021/10/09 14:34:04;;;;;;;11.20;6.67;;;19.20;1.00;;;;;;5054341;28;20185;-80
2021/10/09 14:36:30;;;;;;;10.20;8.07;;;19.30;1.00;;;;;;5066070;28;20207;-78
2021/10/09 14:38:59;;;;;;;8.67;6.57;;;19.30;1.00;;;;;;5067465;28;20178;-81
2021/10/09 14:41:24;;;;;;;7.23;5.60;;;19.40;1.00;;;;;;5036661;28;20711;-80
2021/10/09 14:43:50;;;;;;;9.60;6.90;;;19.80;1.00;;;;;;5053846;28;20205;-80
2021/10/09 14:49:07;;;;;;;10.87;6.90;;;21.10;1.00;;;;;;5053255;28;20240;-80
2021/10/09 14:51:42;;;;;;;9.53;6.53;;;21.80;99.90;;;;;;5053556;28;20733;-79
2021/10/09 15:16:28;;;;;;;12.87;9.13;;;24.30;1.00;;;;;;5053033;28;20187;-81
2021/10/09 15:18:54;;;;;;;11.57;9.20;;;23.80;99.90;;;;;;5053104;28;20656;-81
2021/10/09 15:21:19;;;;;;;10.37;9.37;;;23.20;40.80;;;;;;5052695;28;20203;-80
2021/10/09 15:23:45;;;;;;;13.73;9.67;;;23.10;99.90;;;;;;5052630;28;20169;-80
2021/10/09 15:26:11;;;;;;;12.70;8.87;;;23.10;99.90;;;;;;5052827;28;20184;-80
2021/10/09 15:28:36;;;;;;;13.90;8.73;;;23.80;1.00;;;;;;5057319;28;20180;-81
2021/10/09 15:31:02;;;;;;;10.93;8.87;;;24.20;99.90;;;;;;5057095;28;20209;-80